createdAt,value
2017-08-10T00:00:46.059Z,15.7
2017-08-10T00:01:46.361Z,15.82
2017-08-10T00:02:46.032Z,15.76
2017-08-10T00:03:46.335Z,15.75
2017-08-10T00:04:45.703Z,15.78
2017-08-10T00:05:46.008Z,15.76
2017-08-10T00:06:45.990Z,15.72
2017-08-10T00:07:45.976Z,15.75
2017-08-10T00:08:45.958Z,15.79
2017-08-10T00:09:46.269Z,15.81
2017-08-10T00:10:46.268Z,15.74
2017-08-10T00:11:46.248Z,15.74
2017-08-10T00:12:46.231Z,15.74
2017-08-10T00:13:45.593Z,15.68
2017-08-10T00:14:45.910Z,15.72
2017-08-10T00:15:45.565Z,15.74
2017-08-10T00:16:46.180Z,15.72
2017-08-10T00:17:46.166Z,15.72
2017-08-10T00:18:45.840Z,15.72
2017-08-10T00:19:46.142Z,15.72
2017-08-10T00:20:46.132Z,15.74
2017-08-10T00:21:46.117Z,15.74
2017-08-10T00:22:46.119Z,15.66
2017-08-10T00:23:46.095Z,15.76
2017-08-10T00:24:45.470Z,15.67
2017-08-10T00:25:45.754Z,15.64
2017-08-10T00:26:46.058Z,15.76
2017-08-10T00:27:45.733Z,15.74
2017-08-10T00:28:46.038Z,15.72
2017-08-10T00:29:45.711Z,15.68
2017-08-10T00:30:45.702Z,15.66
2017-08-10T00:31:45.690Z,15.76
2017-08-10T00:32:45.673Z,15.76
2017-08-10T00:33:45.974Z,15.61
2017-08-10T00:34:45.647Z,15.68
2017-08-10T00:35:45.950Z,15.67
2017-08-10T00:36:45.625Z,15.66
2017-08-10T00:37:45.924Z,15.63
2017-08-10T00:38:45.606Z,15.66
2017-08-10T00:39:45.902Z,15.75
2017-08-10T00:40:45.892Z,15.68
2017-08-10T00:41:45.878Z,15.72
2017-08-10T00:42:45.556Z,15.68
2017-08-10T00:43:46.056Z,15.74
2017-08-10T00:44:45.528Z,15.85
2017-08-10T00:45:45.834Z,15.82
2017-08-10T00:46:45.534Z,15.84
2017-08-10T00:47:45.808Z,15.82
2017-08-10T00:48:45.167Z,15.85
2017-08-10T00:49:45.165Z,15.78
2017-08-10T00:50:45.459Z,15.84
2017-08-10T00:51:45.754Z,15.76
2017-08-10T00:52:45.765Z,15.78
2017-08-10T00:53:45.439Z,15.79
2017-08-10T00:54:45.730Z,15.82
2017-08-10T00:55:45.405Z,15.74
2017-08-10T00:56:45.702Z,15.85
2017-08-10T00:57:45.378Z,15.82
2017-08-10T00:58:45.362Z,15.85
2017-08-10T00:59:45.351Z,15.94
2017-08-10T01:00:45.028Z,15.96
2017-08-10T01:01:45.643Z,15.92
2017-08-10T01:02:45.315Z,15.89
2017-08-10T01:03:45.616Z,15.86
2017-08-10T01:04:45.609Z,15.89
2017-08-10T01:05:45.286Z,15.89
2017-08-10T01:06:45.265Z,15.92
2017-08-10T01:07:45.259Z,15.85
2017-08-10T01:08:45.576Z,15.85
2017-08-10T01:09:45.235Z,15.84
2017-08-10T01:10:45.217Z,15.79
2017-08-10T01:11:45.524Z,15.78
2017-08-10T01:12:45.511Z,15.82
2017-08-10T01:13:45.496Z,15.76
2017-08-10T01:14:45.495Z,15.84
2017-08-10T01:15:45.162Z,15.76
2017-08-10T01:16:45.159Z,15.79
2017-08-10T01:17:45.148Z,15.82
2017-08-10T01:18:45.129Z,15.74
2017-08-10T01:19:45.428Z,15.74
2017-08-10T01:20:44.786Z,15.72
2017-08-10T01:21:45.404Z,15.72
2017-08-10T01:22:45.146Z,15.74
2017-08-10T01:23:45.378Z,15.68
2017-08-10T01:24:45.057Z,15.72
2017-08-10T01:25:45.058Z,15.72
2017-08-10T01:26:45.035Z,15.75
2017-08-10T01:27:45.025Z,15.66
2017-08-10T01:28:44.693Z,15.64
2017-08-10T01:29:45.304Z,15.64
2017-08-10T01:30:44.980Z,15.64
2017-08-10T01:31:45.286Z,15.67
2017-08-10T01:32:45.008Z,15.67
2017-08-10T01:33:45.260Z,15.63
2017-08-10T01:34:44.932Z,15.57
2017-08-10T01:35:45.127Z,15.67
2017-08-10T01:36:44.910Z,15.63
2017-08-10T01:37:44.615Z,15.66
2017-08-10T01:38:44.886Z,15.63
2017-08-10T01:39:45.188Z,15.51
2017-08-10T01:40:45.174Z,15.52
2017-08-10T01:41:45.175Z,15.6
2017-08-10T01:42:44.836Z,15.6
2017-08-10T01:43:45.141Z,15.54
2017-08-10T01:44:45.136Z,15.48
2017-08-10T01:45:45.111Z,15.52
2017-08-10T01:46:44.790Z,15.61
2017-08-10T01:47:44.784Z,15.52
2017-08-10T01:48:44.782Z,15.56
2017-08-10T01:49:44.765Z,15.56
2017-08-10T01:50:44.744Z,15.49
2017-08-10T01:51:45.044Z,15.56
2017-08-10T01:52:44.719Z,15.57
2017-08-10T01:53:44.397Z,15.56
2017-08-10T01:54:45.032Z,15.57
2017-08-10T01:55:44.683Z,15.51
2017-08-10T01:56:44.359Z,15.54
2017-08-10T01:57:44.379Z,15.43
2017-08-10T01:58:44.959Z,15.45
2017-08-10T01:59:44.951Z,15.43
2017-08-10T02:00:44.631Z,15.45
2017-08-10T02:01:44.930Z,15.49
2017-08-10T02:02:44.911Z,15.45
2017-08-10T02:03:44.280Z,15.52
2017-08-10T02:04:44.579Z,15.42
2017-08-10T02:05:44.562Z,15.41
2017-08-10T02:06:44.861Z,15.46
2017-08-10T02:07:44.852Z,15.45
2017-08-10T02:08:44.543Z,15.41
2017-08-10T02:09:44.205Z,15.41
2017-08-10T02:10:44.820Z,15.45
2017-08-10T02:11:44.812Z,15.45
2017-08-10T02:12:44.789Z,15.41
2017-08-10T02:13:44.469Z,15.43
2017-08-10T02:14:44.449Z,15.43
2017-08-10T02:15:44.753Z,15.48
2017-08-10T02:16:44.744Z,15.45
2017-08-10T02:17:44.416Z,15.49
2017-08-10T02:18:44.716Z,15.48
2017-08-10T02:19:44.394Z,15.48
2017-08-10T02:20:44.385Z,15.46
2017-08-10T02:21:44.057Z,15.45
2017-08-10T02:22:44.361Z,15.52
2017-08-10T02:23:44.653Z,15.48
2017-08-10T02:24:44.333Z,15.51
2017-08-10T02:25:44.327Z,15.51
2017-08-10T02:26:44.308Z,15.54
2017-08-10T02:27:44.320Z,15.56
2017-08-10T02:28:44.282Z,15.56
2017-08-10T02:29:44.279Z,15.54
2017-08-10T02:30:44.261Z,15.67
2017-08-10T02:31:44.562Z,15.46
2017-08-10T02:32:44.247Z,15.56
2017-08-10T02:33:43.910Z,15.56
2017-08-10T02:34:44.536Z,15.63
2017-08-10T02:35:43.888Z,15.59
2017-08-10T02:36:44.185Z,15.63
2017-08-10T02:37:44.176Z,15.66
2017-08-10T02:38:43.851Z,15.63
2017-08-10T02:39:44.155Z,15.6
2017-08-10T02:40:43.851Z,15.67
2017-08-10T02:41:44.435Z,15.67
2017-08-10T02:42:44.432Z,15.68
2017-08-10T02:43:44.105Z,15.75
2017-08-10T02:44:44.401Z,15.66
2017-08-10T02:45:44.406Z,15.7
2017-08-10T02:46:44.381Z,15.66
2017-08-10T02:47:44.052Z,15.64
2017-08-10T02:48:44.357Z,15.66
2017-08-10T02:49:44.030Z,15.67
2017-08-10T02:50:44.328Z,15.66
2017-08-10T02:51:44.321Z,15.68
2017-08-10T02:52:43.990Z,15.64
2017-08-10T02:53:43.977Z,15.7
2017-08-10T02:54:43.970Z,15.64
2017-08-10T02:55:43.962Z,15.66
2017-08-10T02:56:43.942Z,15.67
2017-08-10T02:57:43.938Z,15.66
2017-08-10T02:58:44.286Z,15.7
2017-08-10T02:59:43.906Z,15.63
2017-08-10T03:00:43.900Z,15.66
2017-08-10T03:01:43.880Z,15.74
2017-08-10T03:02:43.879Z,15.64
2017-08-10T03:03:44.174Z,15.67
2017-08-10T03:04:43.534Z,15.63
2017-08-10T03:05:44.153Z,15.66
2017-08-10T03:06:43.835Z,15.64
2017-08-10T03:07:44.120Z,15.67
2017-08-10T03:08:44.158Z,15.67
2017-08-10T03:09:44.097Z,15.67
2017-08-10T03:10:43.776Z,15.68
2017-08-10T03:11:44.078Z,15.64
2017-08-10T03:12:43.752Z,15.64
2017-08-10T03:13:43.736Z,15.66
2017-08-10T03:14:44.038Z,15.67
2017-08-10T03:15:43.716Z,15.67
2017-08-10T03:16:44.018Z,15.67
2017-08-10T03:17:44.003Z,15.63
2017-08-10T03:18:43.683Z,15.64
2017-08-10T03:19:43.352Z,15.72
2017-08-10T03:20:43.653Z,15.76
2017-08-10T03:21:43.953Z,15.72
2017-08-10T03:22:43.624Z,15.72
2017-08-10T03:23:43.673Z,15.72
2017-08-10T03:24:43.919Z,15.72
2017-08-10T03:25:43.590Z,15.72
2017-08-10T03:26:43.898Z,15.75
2017-08-10T03:27:43.887Z,15.72
2017-08-10T03:28:43.870Z,15.74
2017-08-10T03:29:43.546Z,15.75
2017-08-10T03:30:43.857Z,15.75
2017-08-10T03:31:43.523Z,15.72
2017-08-10T03:32:43.826Z,15.79
2017-08-10T03:33:43.812Z,15.82
2017-08-10T03:34:43.514Z,15.74
2017-08-10T03:35:43.698Z,15.84
2017-08-10T03:36:43.469Z,15.76
2017-08-10T03:37:43.771Z,15.78
2017-08-10T03:38:43.751Z,15.76
2017-08-10T03:39:43.424Z,15.79
2017-08-10T03:40:43.738Z,15.78
2017-08-10T03:41:43.716Z,15.88
2017-08-10T03:42:43.395Z,15.86
2017-08-10T03:43:43.380Z,15.81
2017-08-10T03:44:43.691Z,15.85
2017-08-10T03:45:43.421Z,15.85
2017-08-10T03:46:43.343Z,15.92
2017-08-10T03:47:43.646Z,15.92
2017-08-10T03:48:43.317Z,15.89
2017-08-10T03:49:43.304Z,15.92
2017-08-10T03:50:43.297Z,15.97
2017-08-10T03:51:43.597Z,15.94
2017-08-10T03:52:43.595Z,15.86
2017-08-10T03:53:43.578Z,15.89
2017-08-10T03:54:43.557Z,15.89
2017-08-10T03:55:43.572Z,15.94
2017-08-10T03:56:43.536Z,15.96
2017-08-10T03:57:43.214Z,15.94
2017-08-10T03:58:43.251Z,15.88
2017-08-10T03:59:43.195Z,15.94
2017-08-10T04:00:43.493Z,15.93
2017-08-10T04:01:43.192Z,15.93
2017-08-10T04:02:43.163Z,15.94
2017-08-10T04:03:43.455Z,15.97
2017-08-10T04:04:43.445Z,15.97
2017-08-10T04:05:43.436Z,15.93
2017-08-10T04:06:43.419Z,15.97
2017-08-10T04:07:42.814Z,15.94
2017-08-10T04:08:42.773Z,15.92
2017-08-10T04:09:43.402Z,15.89
2017-08-10T04:10:43.370Z,15.96
2017-08-10T04:11:43.056Z,15.93
2017-08-10T04:12:43.359Z,15.92
2017-08-10T04:13:43.336Z,15.89
2017-08-10T04:14:43.023Z,15.93
2017-08-10T04:15:43.003Z,15.93
2017-08-10T04:16:42.989Z,15.97
2017-08-10T04:17:43.290Z,15.97
2017-08-10T04:18:42.970Z,16
2017-08-10T04:19:43.261Z,15.99
2017-08-10T04:20:42.628Z,15.97
2017-08-10T04:21:42.929Z,16.03
2017-08-10T04:22:42.916Z,16.06
2017-08-10T04:23:43.225Z,16.04
2017-08-10T04:24:42.582Z,15.99
2017-08-10T04:25:42.569Z,16.01
2017-08-10T04:26:42.564Z,15.89
2017-08-10T04:27:43.171Z,15.89
2017-08-10T04:28:42.848Z,15.94
2017-08-10T04:29:43.154Z,15.93
2017-08-10T04:30:42.518Z,15.88
2017-08-10T04:31:42.502Z,15.92
2017-08-10T04:32:42.805Z,15.92
2017-08-10T04:33:43.099Z,15.78
2017-08-10T04:34:42.465Z,15.86
2017-08-10T04:35:43.076Z,15.74
2017-08-10T04:36:42.759Z,15.66
2017-08-10T04:37:42.744Z,15.74
2017-08-10T04:38:42.729Z,15.68
2017-08-10T04:39:42.774Z,15.78
2017-08-10T04:40:42.709Z,15.74
2017-08-10T04:41:43.004Z,15.64
2017-08-10T04:42:42.375Z,15.64
2017-08-10T04:43:42.985Z,15.66
2017-08-10T04:44:42.666Z,15.66
2017-08-10T04:45:42.972Z,15.72
2017-08-10T04:46:42.948Z,15.7
2017-08-10T04:47:42.928Z,15.7
2017-08-10T04:48:42.605Z,15.67
2017-08-10T04:49:42.912Z,15.66
2017-08-10T04:50:42.904Z,15.68
2017-08-10T04:51:42.882Z,15.64
2017-08-10T04:52:42.871Z,15.63
2017-08-10T04:53:42.551Z,15.66
2017-08-10T04:54:42.226Z,15.76
2017-08-10T04:55:42.846Z,15.74
2017-08-10T04:56:42.827Z,15.72
2017-08-10T04:57:42.500Z,15.66
2017-08-10T04:58:42.490Z,15.81
2017-08-10T04:59:42.485Z,15.7
2017-08-10T05:00:42.155Z,15.85
2017-08-10T05:01:42.142Z,15.76
2017-08-10T05:02:42.758Z,15.93
2017-08-10T05:03:42.117Z,15.89
2017-08-10T05:04:42.726Z,15.92
2017-08-10T05:05:42.723Z,15.93
2017-08-10T05:06:42.722Z,15.89
2017-08-10T05:07:42.384Z,15.93
2017-08-10T05:08:42.372Z,15.94
2017-08-10T05:09:42.358Z,15.96
2017-08-10T05:10:42.355Z,15.96
2017-08-10T05:11:42.649Z,16.01
2017-08-10T05:12:42.322Z,16.04
2017-08-10T05:13:42.312Z,16.03
2017-08-10T05:14:42.609Z,16.04
2017-08-10T05:15:42.293Z,16.11
2017-08-10T05:16:42.586Z,16.11
2017-08-10T05:17:42.263Z,16.15
2017-08-10T05:18:42.565Z,16.07
2017-08-10T05:19:42.557Z,16.18
2017-08-10T05:20:42.228Z,16.16
2017-08-10T05:21:42.538Z,16.18
2017-08-10T05:22:42.099Z,16.16
2017-08-10T05:23:42.508Z,16.16
2017-08-10T05:24:42.185Z,16.12
2017-08-10T05:25:42.483Z,16.16
2017-08-10T05:26:42.467Z,16.15
2017-08-10T05:27:42.465Z,16.22
2017-08-10T05:28:42.442Z,16.2
2017-08-10T05:29:42.126Z,16.15
2017-08-10T05:30:42.114Z,16.18
2017-08-10T05:31:42.410Z,16.22
2017-08-10T05:32:42.095Z,16.2
2017-08-10T05:33:42.079Z,16.26
2017-08-10T05:34:42.383Z,16.26
2017-08-10T05:35:42.569Z,16.27
2017-08-10T05:36:42.113Z,16.35
2017-08-10T05:37:42.029Z,16.26
2017-08-10T05:38:42.015Z,16.4
2017-08-10T05:39:42.324Z,16.33
2017-08-10T05:40:42.307Z,16.37
2017-08-10T05:41:41.992Z,16.34
2017-08-10T05:42:41.984Z,16.38
2017-08-10T05:43:42.279Z,16.33
2017-08-10T05:44:42.263Z,16.33
2017-08-10T05:45:42.249Z,16.37
2017-08-10T05:46:41.929Z,16.35
2017-08-10T05:47:42.229Z,16.38
2017-08-10T05:48:42.213Z,16.49
2017-08-10T05:49:42.208Z,16.49
2017-08-10T05:50:42.191Z,16.52
2017-08-10T05:51:41.867Z,16.49
2017-08-10T05:52:41.861Z,16.52
2017-08-10T05:53:41.858Z,16.63
2017-08-10T05:54:42.155Z,16.6
2017-08-10T05:55:42.130Z,16.6
2017-08-10T05:56:42.122Z,16.67
2017-08-10T05:57:41.805Z,16.65
2017-08-10T05:58:41.791Z,16.65
2017-08-10T05:59:41.773Z,16.71
2017-08-10T06:00:41.767Z,16.83
2017-08-10T06:01:42.069Z,16.85
2017-08-10T06:02:41.743Z,16.78
2017-08-10T06:03:42.051Z,16.85
2017-08-10T06:04:41.411Z,16.92
2017-08-10T06:05:42.029Z,16.98
2017-08-10T06:06:41.705Z,17.03
2017-08-10T06:07:41.694Z,17
2017-08-10T06:08:41.990Z,17.11
2017-08-10T06:09:41.975Z,17.07
2017-08-10T06:10:41.656Z,17.14
2017-08-10T06:11:41.972Z,17.14
2017-08-10T06:12:41.638Z,17.2
2017-08-10T06:13:41.622Z,17.2
2017-08-10T06:14:41.622Z,17.26
2017-08-10T06:15:41.924Z,17.32
2017-08-10T06:16:41.598Z,17.26
2017-08-10T06:17:41.583Z,17.32
2017-08-10T06:18:41.895Z,17.33
2017-08-10T06:19:41.871Z,17.54
2017-08-10T06:20:41.863Z,17.57
2017-08-10T06:21:41.861Z,17.51
2017-08-10T06:22:41.528Z,17.51
2017-08-10T06:23:41.840Z,17.63
2017-08-10T06:24:41.515Z,17.59
2017-08-10T06:25:41.556Z,17.66
2017-08-10T06:26:41.495Z,17.64
2017-08-10T06:27:41.167Z,17.71
2017-08-10T06:28:41.468Z,17.73
2017-08-10T06:29:41.458Z,17.79
2017-08-10T06:30:41.450Z,17.85
2017-08-10T06:31:41.754Z,17.81
2017-08-10T06:32:41.112Z,17.84
2017-08-10T06:33:41.733Z,17.88
2017-08-10T06:34:41.409Z,17.91
2017-08-10T06:35:41.758Z,18.03
2017-08-10T06:36:41.392Z,17.97
2017-08-10T06:37:41.690Z,18.12
2017-08-10T06:38:41.691Z,18.09
2017-08-10T06:39:41.356Z,18.02
2017-08-10T06:40:41.348Z,17.97
2017-08-10T06:41:41.649Z,18.02
2017-08-10T06:42:41.641Z,17.95
2017-08-10T06:43:41.325Z,17.92
2017-08-10T06:44:41.308Z,17.99
2017-08-10T06:45:41.312Z,17.89
2017-08-10T06:46:41.598Z,17.84
2017-08-10T06:47:41.275Z,17.82
2017-08-10T06:48:41.264Z,17.82
2017-08-10T06:49:41.253Z,17.81
2017-08-10T06:50:41.248Z,17.87
2017-08-10T06:51:41.233Z,17.76
2017-08-10T06:52:41.542Z,17.81
2017-08-10T06:53:41.551Z,17.78
2017-08-10T06:54:41.522Z,17.73
2017-08-10T06:55:41.253Z,17.76
2017-08-10T06:56:41.512Z,17.78
2017-08-10T06:57:41.174Z,17.81
2017-08-10T06:58:41.482Z,17.81
2017-08-10T06:59:41.158Z,17.81
2017-08-10T07:00:41.152Z,17.74
2017-08-10T07:01:41.135Z,17.82
2017-08-10T07:02:41.129Z,17.79
2017-08-10T07:03:41.112Z,17.82
2017-08-10T07:04:41.137Z,17.84
2017-08-10T07:05:41.094Z,17.85
2017-08-10T07:06:41.400Z,17.84
2017-08-10T07:07:41.391Z,17.92
2017-08-10T07:08:41.387Z,17.95
2017-08-10T07:09:41.057Z,17.99
2017-08-10T07:10:41.361Z,17.94
2017-08-10T07:11:41.038Z,18.06
2017-08-10T07:12:41.337Z,18.02
2017-08-10T07:13:41.330Z,18.09
2017-08-10T07:14:40.693Z,17.97
2017-08-10T07:15:40.689Z,18.13
2017-08-10T07:16:41.296Z,18.1
2017-08-10T07:17:41.289Z,18.09
2017-08-10T07:18:40.650Z,18.19
2017-08-10T07:19:41.266Z,18.1
2017-08-10T07:20:41.261Z,18.15
2017-08-10T07:21:40.933Z,18.24
2017-08-10T07:22:40.939Z,18.27
2017-08-10T07:23:41.229Z,18.24
2017-08-10T07:24:41.218Z,18.28
2017-08-10T07:25:41.205Z,18.31
2017-08-10T07:26:40.884Z,18.29
2017-08-10T07:27:40.877Z,18.28
2017-08-10T07:28:41.176Z,18.36
2017-08-10T07:29:40.860Z,18.39
2017-08-10T07:30:41.171Z,18.37
2017-08-10T07:31:40.835Z,18.39
2017-08-10T07:32:41.145Z,18.44
2017-08-10T07:33:40.824Z,18.44
2017-08-10T07:34:40.804Z,18.44
2017-08-10T07:35:40.895Z,18.46
2017-08-10T07:36:41.113Z,18.54
2017-08-10T07:37:41.093Z,18.57
2017-08-10T07:38:40.768Z,18.52
2017-08-10T07:39:40.789Z,18.57
2017-08-10T07:40:41.109Z,18.58
2017-08-10T07:41:41.054Z,18.52
2017-08-10T07:42:41.055Z,18.72
2017-08-10T07:43:40.723Z,18.64
2017-08-10T07:44:40.709Z,18.62
2017-08-10T07:45:40.708Z,18.76
2017-08-10T07:46:41.012Z,18.74
2017-08-10T07:47:40.680Z,18.74
2017-08-10T07:48:40.984Z,18.86
2017-08-10T07:49:40.979Z,18.76
2017-08-10T07:50:40.662Z,18.76
2017-08-10T07:51:40.644Z,18.82
2017-08-10T07:52:40.944Z,18.8
2017-08-10T07:53:40.629Z,18.9
2017-08-10T07:54:40.626Z,18.9
2017-08-10T07:55:40.608Z,19.01
2017-08-10T07:56:40.607Z,18.95
2017-08-10T07:57:40.277Z,18.95
2017-08-10T07:58:40.891Z,19.02
2017-08-10T07:59:40.570Z,18.95
2017-08-10T08:00:40.568Z,18.99
2017-08-10T08:01:40.289Z,18.97
2017-08-10T08:02:40.238Z,19.01
2017-08-10T08:03:40.853Z,19.02
2017-08-10T08:04:40.532Z,19.01
2017-08-10T08:05:40.513Z,19.02
2017-08-10T08:06:40.819Z,19.13
2017-08-10T08:07:40.498Z,19.17
2017-08-10T08:08:40.800Z,19.25
2017-08-10T08:09:40.475Z,19.35
2017-08-10T08:10:40.472Z,19.39
2017-08-10T08:11:40.824Z,19.4
2017-08-10T08:12:40.453Z,19.5
2017-08-10T08:13:40.752Z,19.57
2017-08-10T08:14:40.435Z,19.53
2017-08-10T08:15:40.428Z,19.66
2017-08-10T08:16:40.732Z,19.6
2017-08-10T08:17:40.410Z,19.61
2017-08-10T08:18:40.717Z,19.58
2017-08-10T08:19:40.705Z,19.72
2017-08-10T08:20:40.385Z,19.8
2017-08-10T08:21:40.427Z,19.78
2017-08-10T08:22:40.368Z,19.8
2017-08-10T08:23:40.419Z,19.8
2017-08-10T08:24:40.353Z,19.9
2017-08-10T08:25:40.041Z,19.86
2017-08-10T08:26:40.647Z,19.9
2017-08-10T08:27:40.327Z,20
2017-08-10T08:28:40.638Z,19.98
2017-08-10T08:29:40.622Z,19.9
2017-08-10T08:30:40.616Z,19.95
2017-08-10T08:31:40.296Z,19.9
2017-08-10T08:32:40.597Z,19.87
2017-08-10T08:33:39.966Z,19.9
2017-08-10T08:34:40.583Z,19.84
2017-08-10T08:35:40.572Z,19.83
2017-08-10T08:36:40.252Z,19.83
2017-08-10T08:37:40.250Z,19.84
2017-08-10T08:38:40.238Z,19.9
2017-08-10T08:39:40.543Z,19.75
2017-08-10T08:40:40.536Z,19.8
2017-08-10T08:41:40.215Z,19.8
2017-08-10T08:42:40.525Z,19.84
2017-08-10T08:43:40.209Z,19.93
2017-08-10T08:44:40.508Z,19.9
2017-08-10T08:45:40.186Z,19.95
2017-08-10T08:46:40.173Z,19.95
2017-08-10T08:47:40.479Z,20.02
2017-08-10T08:48:40.477Z,19.98
2017-08-10T08:49:40.150Z,20.15
2017-08-10T08:50:39.830Z,20.13
2017-08-10T08:51:40.138Z,20.15
2017-08-10T08:52:40.439Z,20.1
2017-08-10T08:53:40.437Z,20.23
2017-08-10T08:54:40.427Z,20.21
2017-08-10T08:55:40.100Z,20.24
2017-08-10T08:56:40.406Z,20.28
2017-08-10T08:57:40.414Z,20.27
2017-08-10T08:58:40.079Z,20.31
2017-08-10T08:59:40.078Z,20.3
2017-08-10T09:00:40.397Z,20.25
2017-08-10T09:01:39.746Z,20.25
2017-08-10T09:02:40.360Z,20.2
2017-08-10T09:03:40.347Z,20.18
2017-08-10T09:04:40.030Z,20.09
2017-08-10T09:05:40.340Z,20.16
2017-08-10T09:06:40.017Z,20.09
2017-08-10T09:07:40.318Z,20.13
2017-08-10T09:08:39.688Z,20.15
2017-08-10T09:09:40.046Z,20.09
2017-08-10T09:10:40.039Z,20.12
2017-08-10T09:11:40.303Z,20.1
2017-08-10T09:12:40.285Z,20.03
2017-08-10T09:13:39.963Z,20.05
2017-08-10T09:14:39.962Z,20.09
2017-08-10T09:15:40.261Z,20.16
2017-08-10T09:16:40.249Z,20.13
2017-08-10T09:17:39.617Z,20.12
2017-08-10T09:18:40.243Z,20.2
2017-08-10T09:19:40.229Z,20.23
2017-08-10T09:20:39.596Z,20.23
2017-08-10T09:21:40.216Z,20.12
2017-08-10T09:22:39.586Z,20.08
2017-08-10T09:23:39.620Z,20.09
2017-08-10T09:24:39.877Z,20.06
2017-08-10T09:25:40.180Z,20.03
2017-08-10T09:26:40.169Z,20.1
2017-08-10T09:27:39.855Z,19.98
2017-08-10T09:28:40.163Z,19.97
2017-08-10T09:29:40.149Z,19.94
2017-08-10T09:30:39.831Z,20.03
2017-08-10T09:31:39.508Z,19.98
2017-08-10T09:32:40.136Z,20.02
2017-08-10T09:33:40.117Z,20.08
2017-08-10T09:34:39.480Z,20.1
2017-08-10T09:35:40.097Z,20.16
2017-08-10T09:36:39.777Z,20.15
2017-08-10T09:37:40.166Z,20.23
2017-08-10T09:38:40.082Z,20.23
2017-08-10T09:39:40.074Z,20.39
2017-08-10T09:40:39.757Z,20.41
2017-08-10T09:41:40.049Z,20.39
2017-08-10T09:42:40.040Z,20.53
2017-08-10T09:43:39.736Z,20.59
2017-08-10T09:44:39.718Z,20.72
2017-08-10T09:45:39.711Z,20.8
2017-08-10T09:46:39.706Z,20.9
2017-08-10T09:47:39.691Z,20.93
2017-08-10T09:48:40.001Z,21.17
2017-08-10T09:49:39.989Z,21.27
2017-08-10T09:50:39.987Z,21.41
2017-08-10T09:51:39.661Z,21.59
2017-08-10T09:52:39.666Z,21.71
2017-08-10T09:53:39.696Z,21.75
2017-08-10T09:54:39.333Z,21.71
2017-08-10T09:55:39.637Z,21.85
2017-08-10T09:56:39.956Z,21.64
2017-08-10T09:57:39.618Z,21.63
2017-08-10T09:58:39.612Z,21.57
2017-08-10T09:59:39.920Z,21.59
2017-08-10T10:00:39.612Z,21.6
2017-08-10T10:01:39.595Z,21.63
2017-08-10T10:02:39.588Z,21.78
2017-08-10T10:03:39.588Z,21.78
2017-08-10T10:04:39.577Z,21.91
2017-08-10T10:05:39.889Z,21.91
2017-08-10T10:06:39.617Z,21.98
2017-08-10T10:07:39.867Z,21.92
2017-08-10T10:08:39.240Z,21.92
2017-08-10T10:09:39.857Z,21.83
2017-08-10T10:10:39.740Z,21.75
2017-08-10T10:11:39.556Z,21.64
2017-08-10T10:12:39.569Z,21.64
2017-08-10T10:13:39.533Z,21.74
2017-08-10T10:14:39.510Z,21.76
2017-08-10T10:15:39.818Z,21.97
2017-08-10T10:16:39.500Z,22.09
2017-08-10T10:17:39.805Z,22.35
2017-08-10T10:18:39.853Z,22.47
2017-08-10T10:19:39.798Z,22.47
2017-08-10T10:20:39.472Z,22.54
2017-08-10T10:21:39.787Z,22.44
2017-08-10T10:22:39.159Z,22.39
2017-08-10T10:23:39.774Z,22.31
2017-08-10T10:24:39.444Z,22.17
2017-08-10T10:25:39.756Z,22.22
2017-08-10T10:26:39.439Z,22.27
2017-08-10T10:27:39.534Z,22.35
2017-08-10T10:28:39.113Z,22.57
2017-08-10T10:29:39.433Z,22.8
2017-08-10T10:30:39.738Z,23.02
2017-08-10T10:31:39.411Z,23.15
2017-08-10T10:32:39.808Z,23.2
2017-08-10T10:33:39.407Z,23.11
2017-08-10T10:34:39.398Z,23.08
2017-08-10T10:35:39.076Z,23.14
2017-08-10T10:36:39.067Z,23.15
2017-08-10T10:37:39.374Z,23.14
2017-08-10T10:38:39.060Z,23.14
2017-08-10T10:39:39.363Z,23.09
2017-08-10T10:40:39.051Z,23.09
2017-08-10T10:41:39.045Z,23.04
2017-08-10T10:42:39.355Z,22.97
2017-08-10T10:43:39.341Z,23.01
2017-08-10T10:44:39.660Z,22.87
2017-08-10T10:45:39.342Z,22.83
2017-08-10T10:46:39.643Z,22.86
2017-08-10T10:47:39.334Z,22.62
2017-08-10T10:48:39.640Z,22.6
2017-08-10T10:49:39.314Z,22.46
2017-08-10T10:50:39.316Z,22.32
2017-08-10T10:51:39.626Z,22.29
2017-08-10T10:52:39.612Z,22.07
2017-08-10T10:53:39.321Z,21.99
2017-08-10T10:54:39.297Z,21.88
2017-08-10T10:55:39.285Z,21.71
2017-08-10T10:56:39.595Z,21.64
2017-08-10T10:57:39.617Z,21.66
2017-08-10T10:58:39.271Z,21.6
2017-08-10T10:59:39.574Z,21.56
2017-08-10T11:00:39.583Z,21.54
2017-08-10T11:01:38.937Z,21.56
2017-08-10T11:02:39.553Z,21.48
2017-08-10T11:03:39.469Z,21.48
2017-08-10T11:04:39.567Z,21.35
2017-08-10T11:05:39.223Z,21.44
2017-08-10T11:06:39.537Z,21.39
2017-08-10T11:07:38.896Z,21.35
2017-08-10T11:08:39.513Z,21.34
2017-08-10T11:09:38.888Z,21.29
2017-08-10T11:10:39.209Z,21.26
2017-08-10T11:11:38.869Z,21.32
2017-08-10T11:12:38.878Z,21.3
2017-08-10T11:13:39.481Z,21.3
2017-08-10T11:14:38.850Z,21.39
2017-08-10T11:15:39.164Z,21.36
2017-08-10T11:16:39.149Z,21.29
2017-08-10T11:17:39.144Z,21.39
2017-08-10T11:18:38.825Z,21.27
2017-08-10T11:19:39.450Z,21.32
2017-08-10T11:20:39.123Z,21.26
2017-08-10T11:21:39.119Z,21.29
2017-08-10T11:22:39.108Z,21.27
2017-08-10T11:23:39.381Z,21.42
2017-08-10T11:24:39.099Z,21.48
2017-08-10T11:25:39.401Z,21.41
2017-08-10T11:26:39.419Z,21.39
2017-08-10T11:27:39.074Z,21.42
2017-08-10T11:28:39.383Z,21.46
2017-08-10T11:29:39.065Z,21.53
2017-08-10T11:30:39.824Z,21.39
2017-08-10T11:31:39.361Z,21.35
2017-08-10T11:32:39.354Z,21.38
2017-08-10T11:33:39.596Z,21.39
2017-08-10T11:34:38.712Z,21.39
2017-08-10T11:35:39.020Z,21.26
2017-08-10T11:36:39.312Z,21.23
2017-08-10T11:37:39.210Z,21.29
2017-08-10T11:38:38.998Z,21.26
2017-08-10T11:39:39.315Z,21.27
2017-08-10T11:40:39.008Z,21.21
2017-08-10T11:41:39.398Z,21.24
2017-08-10T11:42:38.968Z,21.24
2017-08-10T11:43:39.277Z,21.23
2017-08-10T11:44:39.306Z,21.11
2017-08-10T11:45:39.263Z,21.13
2017-08-10T11:46:38.655Z,21.05
2017-08-10T11:47:38.630Z,21.04
2017-08-10T11:48:39.131Z,20.93
2017-08-10T11:49:38.608Z,21.04
2017-08-10T11:50:39.253Z,20.99
2017-08-10T11:51:38.605Z,20.96
2017-08-10T11:52:39.208Z,20.96
2017-08-10T11:53:38.887Z,20.95
2017-08-10T11:54:38.885Z,20.96
2017-08-10T11:55:38.886Z,20.86
2017-08-10T11:56:38.879Z,20.84
2017-08-10T11:57:38.856Z,20.89
2017-08-10T11:58:38.853Z,20.77
2017-08-10T11:59:39.072Z,20.89
2017-08-10T12:00:38.838Z,20.81
2017-08-10T12:01:38.531Z,20.86
2017-08-10T12:02:38.829Z,20.87
2017-08-10T12:03:39.251Z,20.79
2017-08-10T12:04:38.806Z,20.86
2017-08-10T12:05:39.113Z,20.68
2017-08-10T12:06:39.117Z,20.79
2017-08-10T12:07:38.554Z,20.8
2017-08-10T12:08:38.779Z,20.77
2017-08-10T12:09:38.774Z,20.8
2017-08-10T12:10:38.779Z,20.65
2017-08-10T12:11:38.761Z,20.66
2017-08-10T12:12:39.071Z,20.58
2017-08-10T12:13:39.048Z,20.58
2017-08-10T12:14:39.095Z,20.61
2017-08-10T12:15:38.416Z,20.5
2017-08-10T12:16:39.030Z,20.49
2017-08-10T12:17:38.753Z,20.53
2017-08-10T12:18:38.698Z,20.49
2017-08-10T12:19:38.392Z,20.5
2017-08-10T12:20:39.020Z,20.47
2017-08-10T12:21:38.676Z,20.47
2017-08-10T12:22:38.981Z,20.5
2017-08-10T12:23:38.972Z,20.42
2017-08-10T12:24:38.338Z,20.41
2017-08-10T12:25:38.958Z,20.49
2017-08-10T12:26:38.641Z,20.43
2017-08-10T12:27:38.624Z,20.5
2017-08-10T12:28:38.301Z,20.38
2017-08-10T12:29:38.921Z,20.41
2017-08-10T12:30:38.913Z,20.38
2017-08-10T12:31:38.907Z,20.46
2017-08-10T12:32:38.599Z,20.47
2017-08-10T12:33:38.262Z,20.42
2017-08-10T12:34:38.562Z,20.46
2017-08-10T12:35:38.566Z,20.5
2017-08-10T12:36:38.864Z,20.49
2017-08-10T12:37:38.544Z,20.62
2017-08-10T12:38:38.541Z,20.64
2017-08-10T12:39:38.528Z,20.54
2017-08-10T12:40:38.835Z,20.53
2017-08-10T12:41:38.825Z,20.5
2017-08-10T12:42:38.817Z,20.5
2017-08-10T12:43:38.186Z,20.35
2017-08-10T12:44:38.801Z,20.46
2017-08-10T12:45:38.996Z,20.41
2017-08-10T12:46:38.785Z,20.27
2017-08-10T12:47:38.465Z,20.27
2017-08-10T12:48:38.768Z,20.2
2017-08-10T12:49:38.453Z,20.12
2017-08-10T12:50:38.437Z,20.08
2017-08-10T12:51:38.738Z,20.06
2017-08-10T12:52:38.418Z,20.15
2017-08-10T12:53:38.410Z,20.2
2017-08-10T12:54:38.094Z,20.16
2017-08-10T12:55:38.400Z,20.2